createdAt,value
2023-02-15T00:00:14.899Z,36.92
2023-02-15T00:02:46.034Z,35.92
2023-02-15T00:05:13.788Z,34.40
2023-02-15T00:07:41.698Z,33.15
2023-02-15T00:10:11.999Z,38.13
2023-02-15T00:12:39.846Z,35.13
2023-02-15T00:15:08.134Z,38.22
2023-02-15T00:17:36.019Z,43.33
2023-02-15T00:20:03.875Z,37.72
2023-02-15T00:22:31.681Z,35.67
2023-02-15T00:24:59.396Z,35.28
2023-02-15T00:27:27.262Z,39.95
2023-02-15T00:29:55.169Z,35.33
2023-02-15T00:32:23.213Z,41.08
2023-02-15T00:34:50.976Z,37.55
2023-02-15T00:37:18.716Z,36.15
2023-02-15T00:39:48.916Z,36.28
2023-02-15T00:42:16.733Z,36.70
2023-02-15T00:44:44.557Z,37.38
2023-02-15T00:47:12.572Z,34.95
2023-02-15T00:49:40.396Z,38.53
2023-02-15T00:52:08.165Z,39.47
2023-02-15T00:54:37.306Z,35.05
2023-02-15T00:57:05.535Z,35.67
2023-02-15T00:59:33.324Z,37.85
2023-02-15T01:02:01.191Z,36.92
2023-02-15T01:04:31.173Z,36.70
2023-02-15T01:06:59.234Z,38.78
2023-02-15T01:09:27.133Z,38.95
2023-02-15T01:11:55.165Z,37.35
2023-02-15T01:14:22.970Z,42.08
2023-02-15T01:16:50.929Z,38.28
2023-02-15T01:19:18.673Z,36.97
2023-02-15T01:21:46.642Z,38.58
2023-02-15T01:24:15.566Z,35.67
2023-02-15T01:26:43.279Z,38.40
2023-02-15T01:29:11.066Z,37.10
2023-02-15T01:31:40.063Z,38.55
2023-02-15T01:34:08.305Z,37.08
2023-02-15T01:36:36.354Z,36.15
2023-02-15T01:39:04.167Z,34.88
2023-02-15T01:41:33.783Z,34.83
2023-02-15T01:44:04.399Z,38.20
2023-02-15T01:46:37.013Z,41.40
2023-02-15T01:49:17.590Z,34.55
2023-02-15T01:51:49.170Z,34.42
2023-02-15T01:54:33.943Z,34.60
2023-02-15T01:57:13.371Z,37.47
2023-02-15T01:59:46.340Z,34.10
2023-02-15T02:02:17.523Z,32.72
2023-02-15T02:04:52.151Z,41.90
2023-02-15T02:07:28.057Z,38.30
2023-02-15T02:09:56.181Z,33.90
2023-02-15T02:12:26.046Z,37.53
2023-02-15T02:14:55.376Z,40.72
2023-02-15T02:17:47.716Z,33.00
2023-02-15T02:20:36.958Z,31.83
2023-02-15T02:23:34.832Z,32.03
2023-02-15T02:26:55.354Z,38.70
2023-02-15T02:29:47.202Z,28.38
2023-02-15T02:33:08.605Z,30.55
2023-02-15T02:36:03.123Z,32.65
2023-02-15T02:38:57.522Z,31.63
2023-02-15T02:41:52.353Z,29.00
2023-02-15T02:44:32.319Z,30.13
2023-02-15T02:47:07.325Z,28.77
2023-02-15T02:49:41.203Z,27.00
2023-02-15T02:52:40.170Z,34.88
2023-02-15T02:55:41.769Z,29.67
2023-02-15T02:58:32.906Z,23.58
2023-02-15T03:01:20.882Z,19.00
2023-02-15T03:03:58.931Z,16.73
2023-02-15T03:06:39.200Z,16.67
2023-02-15T03:09:42.721Z,17.45
2023-02-15T03:12:21.379Z,19.63
2023-02-15T03:15:12.037Z,19.27
2023-02-15T03:18:11.063Z,17.13
2023-02-15T03:20:39.635Z,15.60
2023-02-15T03:23:26.064Z,21.67
2023-02-15T03:26:02.827Z,22.67
2023-02-15T03:28:44.477Z,19.90
2023-02-15T03:31:16.315Z,16.85
2023-02-15T03:33:56.609Z,16.95
2023-02-15T03:37:10.911Z,19.90
2023-02-15T03:39:54.991Z,25.90
2023-02-15T03:42:36.800Z,18.85
2023-02-15T03:45:15.604Z,17.05
2023-02-15T03:47:49.971Z,17.45
2023-02-15T03:50:46.540Z,20.73
2023-02-15T03:53:21.620Z,16.63
2023-02-15T03:55:55.383Z,17.13
2023-02-15T03:58:43.582Z,21.77
2023-02-15T04:01:55.060Z,15.32
2023-02-15T04:04:42.899Z,17.10
2023-02-15T04:07:11.142Z,15.50
2023-02-15T04:09:57.699Z,15.30
2023-02-15T04:12:25.718Z,16.40
2023-02-15T04:15:12.349Z,16.33
2023-02-15T04:17:40.109Z,15.18
2023-02-15T04:20:28.444Z,14.55
2023-02-15T04:23:15.225Z,12.88
2023-02-15T04:25:42.984Z,14.90
2023-02-15T04:28:10.911Z,14.70
2023-02-15T04:30:38.812Z,15.60
2023-02-15T04:33:06.715Z,13.73
2023-02-15T04:35:34.972Z,13.18
2023-02-15T04:38:02.990Z,13.85
2023-02-15T04:40:30.848Z,13.45
2023-02-15T04:42:58.571Z,15.35
2023-02-15T04:45:28.071Z,14.07
2023-02-15T04:47:56.914Z,13.20
2023-02-15T04:50:24.618Z,13.02
2023-02-15T04:52:52.402Z,12.98
2023-02-15T04:55:20.286Z,14.20
2023-02-15T04:57:48.131Z,14.30
2023-02-15T05:00:16.579Z,12.88
2023-02-15T05:02:44.532Z,13.32
2023-02-15T05:05:13.998Z,12.40
2023-02-15T05:07:42.111Z,13.73
2023-02-15T05:10:10.475Z,11.55
2023-02-15T05:12:38.444Z,12.68
2023-02-15T05:15:06.504Z,12.52
2023-02-15T05:17:34.728Z,14.60
2023-02-15T05:20:02.600Z,10.85
2023-02-15T05:22:30.791Z,12.88
2023-02-15T05:25:17.418Z,10.65
2023-02-15T05:28:05.319Z,10.57
2023-02-15T05:30:33.768Z,11.73
2023-02-15T05:33:01.728Z,12.57
2023-02-15T05:35:29.428Z,13.32
2023-02-15T05:37:57.153Z,10.57
2023-02-15T05:40:25.099Z,13.85
2023-02-15T05:42:52.948Z,13.65
2023-02-15T05:45:20.839Z,14.38
2023-02-15T05:47:48.717Z,11.85
2023-02-15T05:50:16.730Z,11.27
2023-02-15T05:52:44.671Z,12.07
2023-02-15T05:55:14.101Z,12.30
2023-02-15T05:57:41.851Z,12.27
2023-02-15T06:00:10.975Z,11.52
2023-02-15T06:02:42.002Z,22.30
2023-02-15T06:05:10.200Z,12.00
2023-02-15T06:07:38.080Z,11.57
2023-02-15T06:10:07.998Z,13.57
2023-02-15T06:12:36.020Z,13.50
2023-02-15T06:15:04.836Z,12.63
2023-02-15T06:17:33.959Z,13.35
2023-02-15T06:20:01.827Z,15.52
2023-02-15T06:22:29.603Z,12.50
2023-02-15T06:24:57.284Z,13.07
2023-02-15T06:27:25.069Z,16.88
2023-02-15T06:29:52.831Z,15.93
2023-02-15T06:32:20.598Z,14.98
2023-02-15T06:34:48.913Z,11.77
2023-02-15T06:37:19.073Z,12.88
2023-02-15T06:39:47.485Z,15.18
2023-02-15T06:42:18.929Z,13.82
2023-02-15T06:47:14.529Z,14.32
2023-02-15T06:49:43.004Z,17.05
2023-02-15T06:52:12.780Z,16.17
2023-02-15T06:54:42.066Z,17.15
2023-02-15T06:57:10.526Z,19.80
2023-02-15T06:59:38.215Z,19.17
2023-02-15T07:02:10.289Z,20.17
2023-02-15T07:04:38.034Z,23.35
2023-02-15T07:07:13.102Z,22.60
2023-02-15T07:09:42.124Z,22.60
2023-02-15T07:12:29.470Z,20.52
2023-02-15T07:14:59.106Z,18.17
2023-02-15T07:17:36.909Z,21.27
2023-02-15T07:20:11.328Z,20.40
2023-02-15T07:22:39.502Z,20.13
2023-02-15T07:25:10.773Z,20.27
2023-02-15T07:27:39.217Z,21.13
2023-02-15T07:30:10.323Z,21.10
2023-02-15T07:33:05.348Z,25.55
2023-02-15T07:35:35.863Z,24.80
2023-02-15T07:38:03.931Z,23.40
2023-02-15T07:40:31.745Z,26.80
2023-02-15T07:43:00.166Z,27.25
2023-02-15T07:45:28.342Z,27.83
2023-02-15T07:47:56.203Z,26.77
2023-02-15T07:50:24.122Z,26.25
2023-02-15T07:52:51.879Z,25.55
2023-02-15T07:55:19.964Z,27.88
2023-02-15T07:57:50.682Z,24.52
2023-02-15T08:00:24.390Z,26.85
2023-02-15T08:03:15.857Z,26.13
2023-02-15T08:05:45.821Z,27.90
2023-02-15T08:08:32.729Z,25.35
2023-02-15T08:11:30.226Z,25.63
2023-02-15T08:14:08.190Z,24.58
2023-02-15T08:16:44.214Z,23.77
2023-02-15T08:19:20.955Z,24.80
2023-02-15T08:21:54.380Z,28.17
2023-02-15T08:24:24.654Z,26.15
2023-02-15T08:26:53.376Z,25.23
2023-02-15T08:29:26.292Z,28.92
2023-02-15T08:32:03.089Z,25.10
2023-02-15T08:34:35.287Z,26.45
2023-02-15T08:37:03.611Z,25.98
2023-02-15T08:39:31.516Z,24.70
2023-02-15T08:42:01.693Z,28.05
2023-02-15T08:44:31.928Z,24.52
2023-02-15T08:47:05.144Z,24.38
2023-02-15T08:49:34.594Z,26.48
2023-02-15T08:52:02.532Z,23.63
2023-02-15T08:54:30.761Z,23.08
2023-02-15T08:56:58.562Z,21.70
2023-02-15T08:59:46.226Z,25.08
2023-02-15T09:02:15.344Z,26.70
2023-02-15T09:04:43.569Z,30.77
2023-02-15T09:07:11.811Z,27.35
2023-02-15T09:09:39.541Z,32.15
2023-02-15T09:12:08.028Z,25.70
2023-02-15T09:14:36.023Z,23.67
2023-02-15T09:17:04.769Z,24.48
2023-02-15T09:19:33.326Z,25.73
2023-02-15T09:22:01.554Z,24.63
2023-02-15T09:24:37.201Z,23.55
2023-02-15T09:27:04.885Z,23.27
2023-02-15T09:29:32.720Z,25.48
2023-02-15T09:32:02.164Z,25.05
2023-02-15T09:34:30.690Z,22.60
2023-02-15T09:36:58.469Z,23.17
2023-02-15T09:39:28.961Z,26.25
2023-02-15T09:42:58.198Z,21.92
2023-02-15T09:45:38.252Z,21.58
2023-02-15T09:48:40.694Z,23.25
2023-02-15T09:51:26.734Z,26.65
2023-02-15T09:54:40.854Z,25.80
2023-02-15T09:57:33.686Z,22.73
2023-02-15T10:00:19.764Z,20.17
2023-02-15T10:03:24.548Z,24.58
2023-02-15T10:06:09.255Z,24.60
2023-02-15T10:09:07.874Z,25.65
2023-02-15T10:12:21.843Z,24.42
2023-02-15T10:15:10.131Z,20.52
2023-02-15T10:18:27.788Z,22.85
2023-02-15T10:21:14.281Z,19.02
2023-02-15T10:23:47.956Z,18.05
2023-02-15T10:26:22.392Z,20.45
2023-02-15T10:29:00.693Z,21.40
2023-02-15T10:32:00.752Z,18.42
2023-02-15T10:34:52.166Z,17.52
2023-02-15T10:38:30.748Z,19.48
2023-02-15T10:41:12.439Z,17.23
2023-02-15T10:47:05.534Z,17.08
2023-02-15T10:50:07.464Z,17.10
2023-02-15T10:52:47.418Z,16.80
2023-02-15T10:55:52.614Z,19.77
2023-02-15T10:58:25.672Z,18.00
2023-02-15T11:01:42.712Z,21.02
2023-02-15T11:04:37.567Z,18.45
2023-02-15T11:07:30.639Z,22.33
2023-02-15T11:10:30.677Z,20.25
2023-02-15T11:13:01.111Z,20.08
2023-02-15T11:16:30.877Z,19.73
2023-02-15T11:19:33.573Z,18.98
2023-02-15T11:22:07.008Z,22.77
2023-02-15T11:24:45.577Z,20.90
2023-02-15T11:27:13.517Z,23.08
2023-02-15T11:29:59.286Z,20.33
2023-02-15T11:33:02.931Z,19.75
2023-02-15T11:35:37.760Z,17.92
2023-02-15T11:38:27.684Z,22.48
2023-02-15T11:41:10.860Z,20.83
2023-02-15T11:43:58.890Z,19.63
2023-02-15T11:46:27.004Z,19.48
2023-02-15T11:48:55.286Z,20.17
2023-02-15T11:51:26.321Z,19.88
2023-02-15T11:53:54.569Z,19.60
2023-02-15T11:56:27.153Z,18.23
2023-02-15T11:59:24.565Z,19.83
2023-02-15T12:01:52.440Z,22.30
2023-02-15T12:04:45.289Z,18.85
2023-02-15T12:07:47.904Z,18.10
2023-02-15T12:10:30.797Z,17.60
2023-02-15T12:13:20.986Z,17.42
2023-02-15T12:15:53.412Z,18.90
2023-02-15T12:18:45.283Z,17.27
2023-02-15T12:21:36.950Z,18.15
2023-02-15T12:24:33.283Z,18.13
2023-02-15T12:27:04.913Z,18.23
2023-02-15T12:29:47.393Z,18.35
2023-02-15T12:32:25.698Z,18.38
2023-02-15T12:35:02.500Z,20.42
2023-02-15T12:37:35.617Z,19.20
2023-02-15T12:40:26.055Z,20.85
2023-02-15T12:42:54.206Z,21.60
2023-02-15T12:45:31.245Z,19.58
2023-02-15T12:48:13.904Z,22.05
2023-02-15T12:50:47.391Z,19.63
2023-02-15T12:53:20.192Z,19.63
2023-02-15T12:55:57.580Z,19.33
2023-02-15T12:58:33.741Z,22.30
2023-02-15T13:01:15.423Z,21.92
2023-02-15T13:06:47.270Z,17.45
2023-02-15T13:11:48.467Z,18.00
2023-02-15T13:14:33.047Z,20.95
2023-02-15T13:17:08.477Z,22.08
2023-02-15T13:19:48.859Z,23.77
2023-02-15T13:22:26.837Z,22.23
2023-02-15T13:25:02.499Z,25.13
2023-02-15T13:27:40.911Z,23.13
2023-02-15T13:30:32.197Z,20.23
2023-02-15T13:33:36.468Z,21.20
2023-02-15T13:36:26.553Z,22.30
2023-02-15T13:39:02.164Z,21.58
2023-02-15T13:41:55.928Z,22.98
2023-02-15T13:45:04.265Z,22.00
2023-02-15T13:47:55.540Z,22.55
2023-02-15T13:50:50.802Z,20.65
2023-02-15T13:54:00.018Z,22.48
2023-02-15T13:56:54.894Z,23.63
2023-02-15T14:00:05.919Z,21.10
2023-02-15T14:03:12.489Z,20.67
2023-02-15T14:05:57.928Z,21.27
2023-02-15T14:08:59.828Z,22.50
2023-02-15T14:14:41.644Z,19.00
2023-02-15T14:17:59.400Z,19.65
2023-02-15T14:21:04.439Z,22.10
2023-02-15T14:24:01.679Z,21.38
2023-02-15T14:26:55.609Z,22.70
2023-02-15T14:29:53.976Z,22.20
2023-02-15T14:32:43.439Z,21.30
2023-02-15T14:35:21.066Z,21.85
2023-02-15T14:38:07.957Z,21.10
2023-02-15T14:41:12.873Z,21.30
2023-02-15T14:44:18.807Z,24.88
2023-02-15T14:47:20.028Z,23.02
2023-02-15T14:49:48.083Z,22.17
2023-02-15T14:52:16.208Z,26.23
2023-02-15T14:55:06.443Z,21.52
2023-02-15T14:57:36.245Z,22.52
2023-02-15T15:00:39.833Z,24.10
2023-02-15T15:03:25.490Z,22.70
2023-02-15T15:06:00.170Z,21.83
2023-02-15T15:08:39.524Z,23.33
2023-02-15T15:11:44.844Z,26.98
2023-02-15T15:14:33.963Z,22.42
2023-02-15T15:17:39.016Z,21.05
2023-02-15T15:20:59.328Z,23.73
2023-02-15T15:23:49.627Z,25.65
2023-02-15T15:26:31.686Z,24.52
2023-02-15T15:29:01.934Z,27.50
2023-02-15T15:31:40.388Z,25.83
2023-02-15T15:34:29.351Z,25.95
2023-02-15T15:37:38.111Z,26.75
2023-02-15T15:40:43.050Z,25.85
2023-02-15T15:43:42.190Z,25.60
2023-02-15T15:46:53.468Z,24.92
2023-02-15T15:49:25.609Z,25.73
2023-02-15T15:51:53.995Z,24.42
2023-02-15T15:54:27.644Z,23.45
2023-02-15T15:57:03.742Z,22.35
2023-02-15T15:59:34.870Z,21.65
2023-02-15T16:02:18.147Z,22.50
2023-02-15T16:04:51.123Z,21.85
2023-02-15T16:07:18.947Z,22.92
2023-02-15T16:10:05.528Z,24.58
2023-02-15T16:12:38.446Z,23.40
2023-02-15T16:15:20.114Z,26.88
2023-02-15T16:20:31.487Z,23.55
2023-02-15T16:23:36.332Z,24.48
2023-02-15T16:26:40.822Z,24.80
2023-02-15T16:29:27.051Z,24.02
2023-02-15T16:32:29.075Z,26.45
2023-02-15T16:35:04.045Z,26.00
2023-02-15T16:37:35.743Z,24.73
2023-02-15T16:40:04.072Z,23.65
2023-02-15T16:42:32.080Z,24.23
2023-02-15T16:45:13.825Z,24.45
2023-02-15T16:47:46.455Z,29.63
2023-02-15T16:50:36.009Z,29.42
2023-02-15T16:53:07.436Z,28.52
2023-02-15T16:55:43.650Z,29.35
2023-02-15T16:58:18.751Z,27.75
2023-02-15T17:00:46.822Z,28.83
2023-02-15T17:03:14.566Z,25.55
2023-02-15T17:05:48.727Z,28.63
2023-02-15T17:08:32.996Z,30.35
2023-02-15T17:11:01.125Z,30.73
2023-02-15T17:13:30.091Z,28.38
2023-02-15T17:16:01.333Z,27.92
2023-02-15T17:21:26.905Z,26.30
2023-02-15T17:24:05.080Z,36.38
2023-02-15T17:26:38.588Z,25.25
2023-02-15T17:29:32.648Z,26.15
2023-02-15T17:32:01.592Z,27.20
2023-02-15T17:34:50.022Z,28.85
2023-02-15T17:37:27.285Z,28.38
2023-02-15T17:39:56.208Z,28.30
2023-02-15T17:42:24.047Z,28.73
2023-02-15T17:44:51.970Z,31.58
2023-02-15T17:47:23.263Z,25.88
2023-02-15T17:49:51.404Z,27.88
2023-02-15T17:52:19.450Z,28.92
2023-02-15T17:55:06.185Z,27.95
2023-02-15T17:57:34.382Z,33.53
2023-02-15T18:00:21.232Z,28.67
2023-02-15T18:03:12.098Z,28.10
2023-02-15T18:05:59.051Z,29.05
2023-02-15T18:08:46.932Z,27.35
2023-02-15T18:11:33.496Z,28.13
2023-02-15T18:14:01.587Z,28.30
2023-02-15T18:16:41.754Z,29.15
2023-02-15T18:19:27.158Z,25.75
2023-02-15T18:21:57.710Z,24.00
2023-02-15T18:24:27.188Z,22.80
2023-02-15T18:26:55.516Z,25.83
2023-02-15T18:29:23.245Z,27.20
2023-02-15T18:31:55.725Z,27.52
2023-02-15T18:34:28.525Z,24.17
2023-02-15T18:36:57.884Z,26.30
2023-02-15T18:39:54.045Z,26.25
2023-02-15T18:42:36.933Z,26.73
2023-02-15T18:45:14.977Z,26.73
2023-02-15T18:47:43.055Z,22.38
2023-02-15T18:50:12.764Z,19.00
2023-02-15T18:52:43.043Z,17.50
2023-02-15T18:55:19.135Z,22.25
2023-02-15T18:57:48.966Z,24.50
2023-02-15T19:00:30.257Z,25.17
2023-02-15T19:03:02.175Z,20.80
2023-02-15T19:05:32.212Z,23.40
2023-02-15T19:08:02.049Z,24.05
2023-02-15T19:10:32.938Z,27.98
2023-02-15T19:13:00.652Z,25.87
2023-02-15T19:15:30.621Z,22.85
2023-02-15T19:17:59.229Z,24.63
2023-02-15T19:20:42.522Z,26.40
2023-02-15T19:23:22.564Z,24.83
2023-02-15T19:25:53.480Z,24.85
2023-02-15T19:28:34.407Z,24.67
2023-02-15T19:31:02.163Z,17.50
2023-02-15T19:33:30.027Z,22.33
2023-02-15T19:35:58.173Z,22.83
2023-02-15T19:38:30.869Z,28.85
2023-02-15T19:41:05.454Z,29.90
2023-02-15T19:43:34.727Z,31.33
2023-02-15T19:46:03.112Z,28.83
2023-02-15T19:48:31.071Z,29.10
2023-02-15T19:50:59.000Z,29.50
2023-02-15T19:53:29.052Z,29.42
2023-02-15T19:55:56.952Z,31.23
2023-02-15T19:58:24.749Z,32.40
2023-02-15T20:00:53.036Z,33.30
2023-02-15T20:03:20.790Z,31.95
2023-02-15T20:05:48.915Z,29.75
2023-02-15T20:08:20.821Z,32.55
2023-02-15T20:10:49.284Z,29.38
2023-02-15T20:13:20.447Z,28.15
2023-02-15T20:15:49.293Z,26.50
2023-02-15T20:18:17.780Z,24.45
2023-02-15T20:20:47.748Z,22.60
2023-02-15T20:23:24.187Z,24.83
2023-02-15T20:25:52.624Z,25.42
2023-02-15T20:28:30.424Z,24.63
2023-02-15T20:30:59.083Z,25.25
2023-02-15T20:33:26.938Z,25.95
2023-02-15T20:35:55.009Z,23.98
2023-02-15T20:38:29.412Z,24.95
2023-02-15T20:41:18.195Z,24.83
2023-02-15T20:43:46.380Z,27.08
2023-02-15T20:46:14.132Z,22.10
2023-02-15T20:48:42.059Z,22.83
2023-02-15T20:51:21.811Z,25.02
2023-02-15T20:53:49.777Z,26.27
2023-02-15T20:56:23.962Z,25.98
2023-02-15T20:58:53.403Z,22.92
2023-02-15T21:01:21.518Z,25.67
2023-02-15T21:03:49.685Z,26.40
2023-02-15T21:06:18.242Z,29.63
2023-02-15T21:08:46.057Z,28.55
2023-02-15T21:11:21.250Z,30.20
2023-02-15T21:13:52.456Z,31.42
2023-02-15T21:16:20.344Z,31.98
2023-02-15T21:18:48.215Z,27.13
2023-02-15T21:21:26.162Z,27.83
2023-02-15T21:23:54.351Z,27.80
2023-02-15T21:26:23.334Z,27.42
2023-02-15T21:28:51.558Z,34.92
2023-02-15T21:31:25.666Z,38.78
2023-02-15T21:33:53.635Z,41.75
2023-02-15T21:36:25.300Z,74.10
2023-02-15T21:38:56.505Z,69.97
2023-02-15T21:41:43.277Z,63.70
2023-02-15T21:44:43.613Z,58.35
2023-02-15T21:47:40.643Z,73.38
2023-02-15T21:50:39.965Z,90.47
2023-02-15T21:53:13.382Z,83.47
2023-02-15T21:55:41.551Z,61.47
2023-02-15T21:58:22.591Z,64.70
2023-02-15T22:00:54.608Z,59.75
2023-02-15T22:03:30.076Z,62.15
2023-02-15T22:05:57.882Z,38.95
2023-02-15T22:08:25.653Z,63.80
2023-02-15T22:10:57.157Z,54.35
2023-02-15T22:13:44.866Z,44.67
2023-02-15T22:16:22.985Z,73.75
2023-02-15T22:18:50.798Z,64.72
2023-02-15T22:21:19.304Z,97.05
2023-02-15T22:23:47.279Z,66.70
2023-02-15T22:26:25.437Z,73.88
2023-02-15T22:28:53.678Z,47.45
2023-02-15T22:31:23.359Z,36.88
2023-02-15T22:33:51.520Z,44.05
2023-02-15T22:36:28.934Z,51.13
2023-02-15T22:38:57.563Z,49.35
2023-02-15T22:41:30.158Z,29.80
2023-02-15T22:43:58.488Z,42.92
2023-02-15T22:46:27.074Z,30.77
2023-02-15T22:48:54.842Z,33.95
2023-02-15T22:51:24.632Z,33.63
2023-02-15T22:53:53.687Z,31.63
2023-02-15T22:56:43.743Z,36.22
2023-02-15T22:59:28.712Z,51.88
2023-02-15T23:01:57.668Z,67.85
2023-02-15T23:04:28.967Z,40.65
2023-02-15T23:06:58.919Z,59.20
2023-02-15T23:09:26.860Z,41.55
2023-02-15T23:11:54.882Z,52.25
2023-02-15T23:14:29.157Z,51.90
2023-02-15T23:16:57.161Z,20.17
2023-02-15T23:19:25.080Z,44.10
2023-02-15T23:21:53.096Z,35.10
2023-02-15T23:24:29.552Z,25.30
2023-02-15T23:27:17.858Z,26.73
2023-02-15T23:29:45.673Z,34.88
2023-02-15T23:32:14.656Z,36.63
2023-02-15T23:34:43.275Z,22.75
2023-02-15T23:37:14.314Z,19.52
2023-02-15T23:40:00.852Z,33.30
2023-02-15T23:42:31.861Z,42.92
2023-02-15T23:45:00.004Z,18.15
2023-02-15T23:47:50.823Z,24.67
2023-02-15T23:50:20.743Z,22.55
2023-02-15T23:52:50.278Z,24.88
2023-02-15T23:55:19.394Z,45.70
2023-02-15T23:57:47.766Z,41.20
